createdAt,value
2018-01-28T00:01:40.696Z,100.00
2018-01-28T00:04:09.012Z,100.00
2018-01-28T00:06:37.308Z,100.00
2018-01-28T00:09:05.638Z,100.00
2018-01-28T00:11:34.728Z,100.00
2018-01-28T00:14:03.086Z,100.00
2018-01-28T00:16:31.438Z,100.00
2018-01-28T00:18:59.770Z,100.00
2018-01-28T00:21:28.088Z,100.00
2018-01-28T00:23:56.359Z,100.00
2018-01-28T00:26:25.385Z,100.00
2018-01-28T00:28:53.661Z,100.00
2018-01-28T00:31:21.938Z,100.00
2018-01-28T00:33:50.199Z,100.00
2018-01-28T00:36:18.462Z,100.00
2018-01-28T00:38:46.791Z,100.00
2018-01-28T00:41:15.052Z,100.00
2018-01-28T00:43:43.328Z,100.00
2018-01-28T00:46:12.357Z,100.00
2018-01-28T00:48:40.628Z,100.00
2018-01-28T00:51:09.740Z,100.00
2018-01-28T00:53:38.779Z,100.00
2018-01-28T00:56:07.037Z,100.00
2018-01-28T00:58:35.361Z,100.00
2018-01-28T01:01:03.664Z,100.00
2018-01-28T01:03:31.999Z,100.00
2018-01-28T01:06:00.338Z,100.00
2018-01-28T01:08:28.615Z,100.00
2018-01-28T01:10:56.875Z,100.00
2018-01-28T01:13:25.167Z,100.00
2018-01-28T01:15:53.431Z,100.00
2018-01-28T01:18:21.710Z,100.00
2018-01-28T01:20:49.996Z,100.00
2018-01-28T01:23:18.335Z,100.00
2018-01-28T01:25:46.600Z,100.00
2018-01-28T01:28:15.632Z,100.00
2018-01-28T01:30:43.908Z,100.00
2018-01-28T01:33:12.188Z,100.00
2018-01-28T01:35:41.227Z,100.00
2018-01-28T01:38:09.503Z,100.00
2018-01-28T01:40:37.773Z,100.00
2018-01-28T01:43:06.799Z,100.00
2018-01-28T01:45:35.115Z,100.00
2018-01-28T01:48:04.468Z,100.00
2018-01-28T01:50:32.759Z,100.00
2018-01-28T01:53:01.821Z,100.00
2018-01-28T01:55:30.134Z,100.00
2018-01-28T01:57:58.392Z,100.00
2018-01-28T02:00:26.658Z,100.00
2018-01-28T02:02:54.924Z,100.00
2018-01-28T02:05:23.201Z,100.00
2018-01-28T02:07:51.468Z,100.00
2018-01-28T02:10:19.738Z,100.00
2018-01-28T02:12:47.995Z,100.00
2018-01-28T02:15:17.028Z,100.00
2018-01-28T02:17:45.324Z,100.00
2018-01-28T02:20:13.593Z,100.00
2018-01-28T02:22:41.923Z,100.00
2018-01-28T02:25:10.238Z,100.00
2018-01-28T02:27:38.500Z,100.00
2018-01-28T02:30:06.796Z,100.00
2018-01-28T02:32:35.063Z,100.00
2018-01-28T02:35:03.368Z,100.00
2018-01-28T02:37:31.636Z,100.00
2018-01-28T02:39:59.900Z,100.00
2018-01-28T02:42:28.960Z,99.90
2018-01-28T02:44:57.224Z,99.98
2018-01-28T02:47:25.500Z,99.48
2018-01-28T02:49:53.751Z,99.15
2018-01-28T02:52:22.015Z,98.76
2018-01-28T02:54:50.271Z,97.57
2018-01-28T02:57:18.533Z,96.69
2018-01-28T02:59:47.549Z,95.57
2018-01-28T03:02:16.592Z,95.30
2018-01-28T03:04:44.954Z,95.17
2018-01-28T03:07:13.247Z,94.04
2018-01-28T03:09:41.526Z,93.69
2018-01-28T03:12:09.806Z,93.53
2018-01-28T03:14:39.155Z,92.36
2018-01-28T03:17:07.423Z,91.43
2018-01-28T03:19:35.685Z,91.58
2018-01-28T03:22:03.961Z,91.72
2018-01-28T03:24:32.217Z,91.67
2018-01-28T03:27:00.501Z,90.45
2018-01-28T03:29:29.532Z,90.63
2018-01-28T03:31:57.793Z,90.41
2018-01-28T03:34:26.051Z,90.36
2018-01-28T03:36:55.092Z,90.42
2018-01-28T03:39:23.343Z,89.91
2018-01-28T03:41:52.039Z,88.38
2018-01-28T03:44:21.047Z,88.70
2018-01-28T03:46:50.081Z,88.62
2018-01-28T03:49:18.331Z,88.08
2018-01-28T03:51:46.619Z,88.26
2018-01-28T03:54:14.920Z,88.16
2018-01-28T03:56:43.985Z,88.20
2018-01-28T03:59:13.012Z,88.12
2018-01-28T04:01:42.036Z,87.50
2018-01-28T04:04:10.283Z,87.63
2018-01-28T04:06:38.553Z,87.66
2018-01-28T04:09:06.804Z,87.10
2018-01-28T04:11:35.095Z,87.47
2018-01-28T04:14:03.348Z,86.92
2018-01-28T04:16:31.603Z,86.87
2018-01-28T04:18:59.862Z,87.20
2018-01-28T04:21:28.127Z,86.16
2018-01-28T04:23:56.372Z,86.33
2018-01-28T04:26:24.648Z,86.07
2018-01-28T04:28:53.677Z,86.47
2018-01-28T04:31:21.955Z,86.72
2018-01-28T04:33:50.222Z,85.51
2018-01-28T04:36:18.464Z,84.52
2018-01-28T04:38:46.743Z,84.49
2018-01-28T04:41:14.995Z,83.88
2018-01-28T04:43:44.028Z,84.96
2018-01-28T04:46:12.298Z,84.63
2018-01-28T04:48:40.588Z,84.48
2018-01-28T04:51:08.844Z,83.63
2018-01-28T04:53:37.127Z,84.55
2018-01-28T04:56:05.387Z,83.44
2018-01-28T04:58:33.676Z,84.18
2018-01-28T05:01:01.947Z,84.12
2018-01-28T05:03:30.214Z,83.04
2018-01-28T05:08:33.683Z,83.21
2018-01-28T05:11:01.952Z,82.90
2018-01-28T05:13:30.233Z,82.80
2018-01-28T05:15:59.269Z,82.69
2018-01-28T05:18:27.555Z,82.62
2018-01-28T05:20:55.800Z,81.79
2018-01-28T05:23:24.059Z,81.78
2018-01-28T05:25:52.320Z,80.52
2018-01-28T05:28:20.621Z,80.14
2018-01-28T05:30:48.876Z,80.92
2018-01-28T05:33:17.913Z,80.93
2018-01-28T05:35:46.176Z,81.30
2018-01-28T05:38:15.230Z,81.75
2018-01-28T05:40:43.517Z,81.46
2018-01-28T05:43:11.787Z,80.93
2018-01-28T05:45:40.056Z,81.90
2018-01-28T05:48:08.335Z,81.87
2018-01-28T05:50:36.594Z,82.57
2018-01-28T05:53:05.790Z,81.47
2018-01-28T05:55:34.083Z,81.74
2018-01-28T05:58:02.328Z,81.85
2018-01-28T06:00:30.601Z,81.92
2018-01-28T06:02:59.643Z,82.24
2018-01-28T06:05:27.911Z,80.95
2018-01-28T06:07:56.162Z,81.24
2018-01-28T06:10:24.430Z,81.60
2018-01-28T06:12:53.440Z,81.56
2018-01-28T06:15:21.739Z,82.63
2018-01-28T06:17:50.019Z,82.14
2018-01-28T06:20:18.298Z,81.78
2018-01-28T06:22:46.628Z,81.54
2018-01-28T06:25:14.923Z,81.64
2018-01-28T06:27:43.941Z,82.49
2018-01-28T06:30:12.213Z,81.87
2018-01-28T06:32:41.260Z,81.83
2018-01-28T06:35:09.536Z,82.08
2018-01-28T06:37:37.921Z,82.19
2018-01-28T06:40:06.196Z,81.68
2018-01-28T06:42:35.236Z,81.72
2018-01-28T06:45:03.507Z,81.27
2018-01-28T06:47:31.763Z,80.91
2018-01-28T06:50:00.033Z,80.22
2018-01-28T06:52:28.287Z,80.37
2018-01-28T06:54:56.550Z,78.77
2018-01-28T06:57:25.560Z,78.83
2018-01-28T06:59:53.848Z,79.68
2018-01-28T07:02:22.964Z,79.45
2018-01-28T07:04:52.072Z,77.70
2018-01-28T07:07:20.364Z,78.98
2018-01-28T07:09:48.709Z,78.57
2018-01-28T07:12:17.784Z,77.64
2018-01-28T07:14:46.033Z,78.04
2018-01-28T07:17:15.078Z,77.85
2018-01-28T07:19:43.337Z,77.08
2018-01-28T07:22:12.370Z,78.17
2018-01-28T07:24:40.636Z,77.79
2018-01-28T07:27:09.710Z,76.93
2018-01-28T07:29:37.954Z,76.66
2018-01-28T07:32:06.215Z,75.81
2018-01-28T07:34:35.247Z,76.52
2018-01-28T07:37:03.524Z,76.53
2018-01-28T07:39:32.530Z,76.72
2018-01-28T07:42:00.804Z,76.37
2018-01-28T07:44:29.926Z,74.99
2018-01-28T07:46:58.952Z,75.04
2018-01-28T07:49:27.204Z,74.69
2018-01-28T07:51:56.245Z,74.19
2018-01-28T07:54:24.498Z,74.11
2018-01-28T07:56:52.816Z,74.27
2018-01-28T07:59:21.846Z,74.02
2018-01-28T08:01:50.131Z,72.27
2018-01-28T08:04:18.388Z,72.28
2018-01-28T08:06:47.416Z,72.25
2018-01-28T08:09:15.667Z,71.81
2018-01-28T08:11:50.090Z,71.98
2018-01-28T08:14:19.705Z,71.35
2018-01-28T08:16:48.218Z,72.38
2018-01-28T08:19:16.511Z,71.35
2018-01-28T08:21:45.741Z,70.64
2018-01-28T08:24:14.380Z,71.05
2018-01-28T08:26:47.654Z,70.84
2018-01-28T08:29:18.596Z,71.38
2018-01-28T08:31:47.649Z,70.75
2018-01-28T08:34:16.628Z,70.63
2018-01-28T08:36:44.916Z,70.53
2018-01-28T08:39:13.959Z,69.20
2018-01-28T08:41:42.269Z,71.70
2018-01-28T08:44:10.519Z,69.62
2018-01-28T08:46:38.763Z,69.46
2018-01-28T08:49:07.794Z,69.84
2018-01-28T08:51:36.040Z,70.05
2018-01-28T08:54:05.066Z,69.76
2018-01-28T08:56:33.371Z,70.76
2018-01-28T08:59:01.663Z,68.13
2018-01-28T09:01:29.964Z,68.46
2018-01-28T09:03:58.268Z,70.52
2018-01-28T09:06:27.253Z,68.40
2018-01-28T09:08:55.835Z,68.09
2018-01-28T09:11:24.328Z,67.57
2018-01-28T09:13:53.017Z,67.07
2018-01-28T09:16:22.317Z,67.11
2018-01-28T09:18:51.581Z,66.84
2018-01-28T09:21:20.067Z,66.38
2018-01-28T09:23:48.646Z,67.30
2018-01-28T09:26:17.517Z,66.18
2018-01-28T09:28:46.337Z,64.68
2018-01-28T09:31:15.807Z,65.40
2018-01-28T09:33:44.780Z,65.78
2018-01-28T09:36:13.508Z,64.68
2018-01-28T09:38:43.227Z,64.62
2018-01-28T09:41:12.609Z,64.92
2018-01-28T09:43:41.779Z,64.89
2018-01-28T09:46:10.556Z,64.59
2018-01-28T09:48:39.521Z,64.93
2018-01-28T09:51:09.087Z,64.68
2018-01-28T09:53:38.271Z,64.13
2018-01-28T09:56:06.963Z,64.92
2018-01-28T09:58:35.873Z,64.35
2018-01-28T10:01:04.501Z,64.02
2018-01-28T10:03:33.081Z,64.87
2018-01-28T10:06:01.455Z,64.04
2018-01-28T10:08:29.933Z,64.95
2018-01-28T10:10:59.114Z,64.33
2018-01-28T10:13:27.545Z,64.68
2018-01-28T10:15:56.192Z,64.41
2018-01-28T10:18:25.030Z,63.75
2018-01-28T10:20:53.458Z,63.38
2018-01-28T10:23:22.023Z,63.90
2018-01-28T10:25:50.548Z,63.64
2018-01-28T10:28:19.106Z,63.89
2018-01-28T10:30:48.357Z,63.80
2018-01-28T10:33:16.965Z,62.92
2018-01-28T10:35:45.673Z,63.65
2018-01-28T10:38:14.388Z,64.24
2018-01-28T10:40:42.982Z,64.24
2018-01-28T10:43:11.489Z,64.71
2018-01-28T10:45:40.042Z,64.56
2018-01-28T10:48:08.533Z,65.05
2018-01-28T10:50:38.464Z,64.52
2018-01-28T10:53:07.753Z,64.25
2018-01-28T10:55:36.308Z,63.42
2018-01-28T10:58:05.516Z,64.46
2018-01-28T11:00:33.998Z,65.06
2018-01-28T11:03:02.375Z,65.23
2018-01-28T11:05:30.803Z,66.25
2018-01-28T11:08:00.285Z,65.28
2018-01-28T11:10:29.030Z,66.62
2018-01-28T11:12:57.427Z,66.88
2018-01-28T11:15:26.720Z,67.60
2018-01-28T11:17:55.003Z,68.20
2018-01-28T11:20:23.442Z,68.81
2018-01-28T11:22:52.018Z,67.58
2018-01-28T11:25:21.529Z,66.65
2018-01-28T11:27:50.777Z,66.05
2018-01-28T11:30:19.430Z,65.37
2018-01-28T11:32:48.838Z,65.80
2018-01-28T11:35:17.368Z,65.40
2018-01-28T11:37:46.156Z,65.29
2018-01-28T11:40:14.894Z,65.21
2018-01-28T11:42:44.393Z,64.10
2018-01-28T11:45:14.312Z,63.53
2018-01-28T11:47:42.999Z,64.44
2018-01-28T11:50:11.849Z,64.25
2018-01-28T11:52:41.496Z,65.05
2018-01-28T11:55:10.912Z,64.43
2018-01-28T11:57:39.381Z,62.91
2018-01-28T12:00:08.381Z,62.93
2018-01-28T12:02:36.811Z,63.04
2018-01-28T12:05:06.203Z,63.78
2018-01-28T12:07:34.812Z,62.22
2018-01-28T12:10:03.741Z,62.67
2018-01-28T12:12:32.962Z,63.94
2018-01-28T12:15:01.493Z,64.77
2018-01-28T12:17:30.393Z,64.58
2018-01-28T12:19:58.992Z,64.07
2018-01-28T12:22:27.873Z,63.77
2018-01-28T12:24:56.730Z,64.07
2018-01-28T12:27:25.771Z,64.27
2018-01-28T12:29:55.335Z,63.64
2018-01-28T12:32:24.829Z,64.38
2018-01-28T12:34:53.683Z,63.60
2018-01-28T12:37:23.274Z,64.76
2018-01-28T12:39:51.977Z,64.48
2018-01-28T12:42:21.358Z,65.13
2018-01-28T12:44:49.927Z,64.93
2018-01-28T12:47:19.099Z,65.19
2018-01-28T12:49:47.384Z,66.24
2018-01-28T12:52:15.684Z,65.22
2018-01-28T12:54:44.065Z,66.30
2018-01-28T12:57:12.405Z,65.77
2018-01-28T12:59:41.461Z,65.18
2018-01-28T13:02:09.828Z,64.82
2018-01-28T13:04:38.191Z,66.02
2018-01-28T13:07:07.326Z,64.90
2018-01-28T13:09:35.659Z,64.41
2018-01-28T13:12:04.125Z,65.86
2018-01-28T13:14:32.570Z,64.17
2018-01-28T13:17:01.634Z,65.26
2018-01-28T13:19:30.005Z,65.33
2018-01-28T13:21:58.388Z,71.10
2018-01-28T13:24:27.779Z,63.61
2018-01-28T13:26:56.193Z,64.78
2018-01-28T13:29:24.586Z,63.87
2018-01-28T13:31:52.924Z,64.96
2018-01-28T13:34:21.308Z,65.37
2018-01-28T13:36:49.611Z,65.62
2018-01-28T13:39:18.819Z,66.07
2018-01-28T13:41:47.148Z,67.24
2018-01-28T13:44:16.298Z,66.67
2018-01-28T13:46:44.616Z,65.98
2018-01-28T13:49:13.195Z,67.09
2018-01-28T13:51:42.339Z,66.26
2018-01-28T13:54:11.619Z,66.32
2018-01-28T13:56:40.000Z,66.17
2018-01-28T13:59:08.378Z,66.83
2018-01-28T14:01:37.797Z,65.21
2018-01-28T14:04:06.454Z,67.00
2018-01-28T14:06:35.857Z,66.70
2018-01-28T14:09:04.225Z,66.28
2018-01-28T14:11:32.865Z,67.05
2018-01-28T14:14:03.269Z,67.77
2018-01-28T14:16:33.006Z,67.77
2018-01-28T14:19:03.980Z,68.43
2018-01-28T14:21:33.821Z,68.07
2018-01-28T14:24:03.645Z,69.08
2018-01-28T14:26:32.025Z,70.07
2018-01-28T14:29:01.361Z,68.29
2018-01-28T14:31:32.515Z,67.98
2018-01-28T14:34:01.076Z,68.46
2018-01-28T14:36:30.338Z,69.37
2018-01-28T14:38:58.715Z,68.91
2018-01-28T14:41:27.361Z,68.43
2018-01-28T14:43:56.040Z,69.87
2018-01-28T14:46:25.618Z,68.83
2018-01-28T14:48:54.206Z,69.13
2018-01-28T14:51:23.707Z,69.55
2018-01-28T14:53:52.481Z,68.52
2018-01-28T14:56:21.176Z,69.85
2018-01-28T14:58:49.858Z,69.82
2018-01-28T15:01:18.485Z,70.22
2018-01-28T15:03:47.089Z,70.17
2018-01-28T15:06:16.473Z,70.33
2018-01-28T15:08:45.303Z,70.69
2018-01-28T15:11:13.990Z,71.89
2018-01-28T15:13:42.907Z,72.46
2018-01-28T15:16:12.534Z,74.12
2018-01-28T15:18:41.923Z,74.26
2018-01-28T15:21:10.520Z,74.97
2018-01-28T15:23:39.267Z,76.24
2018-01-28T15:26:07.851Z,76.57
2018-01-28T15:28:37.105Z,77.78
2018-01-28T15:31:05.725Z,77.54
2018-01-28T15:33:34.364Z,77.16
2018-01-28T15:36:03.928Z,77.94
2018-01-28T15:38:32.641Z,77.13
2018-01-28T15:41:02.175Z,77.98
2018-01-28T15:43:30.537Z,78.81
2018-01-28T15:45:58.924Z,78.85
2018-01-28T15:48:27.599Z,78.92
2018-01-28T15:50:56.408Z,79.25
2018-01-28T15:53:24.718Z,78.81
2018-01-28T15:55:53.012Z,79.56
2018-01-28T15:58:21.359Z,79.87
2018-01-28T16:00:50.612Z,79.61
2018-01-28T16:03:18.877Z,80.02
2018-01-28T16:05:47.205Z,79.71
2018-01-28T16:08:15.607Z,80.40
2018-01-28T16:10:43.917Z,80.39
2018-01-28T16:13:13.021Z,80.29
2018-01-28T16:15:42.071Z,80.76
2018-01-28T16:18:10.361Z,80.86
2018-01-28T16:20:38.660Z,80.97
2018-01-28T16:23:07.006Z,81.20
2018-01-28T16:25:36.292Z,81.36
2018-01-28T16:28:04.704Z,81.43
2018-01-28T16:30:33.803Z,82.27
2018-01-28T16:33:02.413Z,81.71
2018-01-28T16:35:30.767Z,80.94
2018-01-28T16:37:59.072Z,81.58
2018-01-28T16:40:27.445Z,81.92
2018-01-28T16:42:55.850Z,82.36
2018-01-28T16:45:24.218Z,82.30
2018-01-28T16:47:52.624Z,82.48
2018-01-28T16:50:20.992Z,82.63
2018-01-28T16:52:49.257Z,83.19
2018-01-28T16:55:17.552Z,82.91
2018-01-28T16:57:46.129Z,83.62
2018-01-28T17:00:15.198Z,83.81
2018-01-28T17:02:43.539Z,83.93
2018-01-28T17:05:12.706Z,83.92
2018-01-28T17:07:41.044Z,84.37
2018-01-28T17:10:09.364Z,84.44
2018-01-28T17:12:37.812Z,84.44
2018-01-28T17:15:06.964Z,84.88
2018-01-28T17:17:35.339Z,84.63
2018-01-28T17:20:03.635Z,84.79
2018-01-28T17:22:31.997Z,84.86
2018-01-28T17:25:01.059Z,84.58
2018-01-28T17:27:29.384Z,84.95
2018-01-28T17:29:57.713Z,84.52
2018-01-28T17:32:26.043Z,85.43
2018-01-28T17:34:54.487Z,85.79
2018-01-28T17:37:22.838Z,85.96
2018-01-28T17:39:51.159Z,86.20
2018-01-28T17:42:19.599Z,86.06
2018-01-28T17:44:47.919Z,86.03
2018-01-28T17:47:17.128Z,86.02
2018-01-28T17:49:46.302Z,86.08
2018-01-28T17:52:14.679Z,86.22
2018-01-28T17:54:43.083Z,86.51
2018-01-28T17:57:11.401Z,86.55
2018-01-28T17:59:39.768Z,86.34
2018-01-28T18:02:08.227Z,86.16
2018-01-28T18:04:36.567Z,86.32
2018-01-28T18:07:04.972Z,86.67
2018-01-28T18:09:33.295Z,87.14
2018-01-28T18:12:02.340Z,87.32
2018-01-28T18:14:30.646Z,87.80
2018-01-28T18:16:58.923Z,88.29
2018-01-28T18:19:27.295Z,89.94
2018-01-28T18:21:55.575Z,87.87
2018-01-28T18:24:23.920Z,88.73
2018-01-28T18:26:52.291Z,89.46
2018-01-28T18:29:20.624Z,90.64
2018-01-28T18:31:49.707Z,90.94
2018-01-28T18:34:18.063Z,91.74
2018-01-28T18:36:46.399Z,91.93
2018-01-28T18:39:14.804Z,92.12
2018-01-28T18:41:43.131Z,92.74
2018-01-28T18:44:11.460Z,93.32
2018-01-28T18:46:39.778Z,93.41
2018-01-28T18:49:08.864Z,93.77
2018-01-28T18:56:24.354Z,94.92
2018-01-28T18:58:52.688Z,94.40
2018-01-28T19:01:21.749Z,94.57
2018-01-28T19:03:50.111Z,94.82
2018-01-28T19:06:19.258Z,94.97
2018-01-28T19:08:47.613Z,94.90
2018-01-28T19:11:16.797Z,94.98
2018-01-28T19:13:45.111Z,94.78
2018-01-28T19:16:13.534Z,95.47
2018-01-28T19:18:41.955Z,94.78
2018-01-28T19:21:10.321Z,94.73
2018-01-28T19:23:38.599Z,94.64
2018-01-28T19:26:06.984Z,94.20
2018-01-28T19:28:36.078Z,94.00
2018-01-28T19:31:05.136Z,94.12
2018-01-28T19:33:33.446Z,93.98
2018-01-28T19:36:01.786Z,94.08
2018-01-28T19:38:30.176Z,94.07
2018-01-28T19:40:59.275Z,93.67
2018-01-28T19:43:28.353Z,93.53
2018-01-28T19:45:56.732Z,93.24
2018-01-28T19:48:25.029Z,93.05
2018-01-28T19:50:54.228Z,93.37
2018-01-28T19:53:22.598Z,93.39
2018-01-28T19:55:51.670Z,93.28
2018-01-28T19:58:20.785Z,93.30
2018-01-28T20:00:49.879Z,93.36
2018-01-28T20:03:18.908Z,92.90
2018-01-28T20:05:49.291Z,92.84
2018-01-28T20:08:17.563Z,92.77
2018-01-28T20:10:45.935Z,92.70
2018-01-28T20:13:14.263Z,92.46
2018-01-28T20:15:42.642Z,92.23
2018-01-28T20:18:11.172Z,92.25
2018-01-28T20:20:39.501Z,92.09
2018-01-28T20:23:07.823Z,91.95
2018-01-28T20:25:36.158Z,91.83
2018-01-28T20:28:05.247Z,91.88
2018-01-28T20:30:33.541Z,92.06
2018-01-28T20:33:02.636Z,91.66
2018-01-28T20:35:30.961Z,91.42
2018-01-28T20:37:59.218Z,91.51
2018-01-28T20:40:27.783Z,91.68
2018-01-28T20:42:56.103Z,91.61
2018-01-28T20:45:24.422Z,91.07
2018-01-28T20:47:53.545Z,90.74
2018-01-28T20:50:21.930Z,90.55
2018-01-28T20:52:50.228Z,90.39
2018-01-28T20:55:18.553Z,90.55
2018-01-28T20:57:46.894Z,90.54
2018-01-28T21:00:15.664Z,90.10
2018-01-28T21:02:43.991Z,90.00
2018-01-28T21:05:13.124Z,89.70
2018-01-28T21:07:41.632Z,89.87
2018-01-28T21:10:10.007Z,89.70
2018-01-28T21:12:38.299Z,89.07
2018-01-28T21:15:06.649Z,89.11
2018-01-28T21:17:35.695Z,89.24
2018-01-28T21:20:04.054Z,89.32
2018-01-28T21:22:33.175Z,88.85
2018-01-28T21:25:01.454Z,88.98
2018-01-28T21:27:30.564Z,89.30
2018-01-28T21:29:59.617Z,89.66
2018-01-28T21:32:28.045Z,89.68
2018-01-28T21:34:56.422Z,89.36
2018-01-28T21:37:24.833Z,89.17
2018-01-28T21:39:54.005Z,88.75
2018-01-28T21:42:23.281Z,88.71
2018-01-28T21:44:51.708Z,89.31
2018-01-28T21:47:20.051Z,89.52
2018-01-28T21:49:48.383Z,89.55
2018-01-28T21:52:16.741Z,89.83
2018-01-28T21:54:45.084Z,89.52
2018-01-28T21:57:13.463Z,90.16
2018-01-28T21:59:41.797Z,90.28
2018-01-28T22:02:10.884Z,90.21
2018-01-28T22:04:39.955Z,90.19
2018-01-28T22:07:08.272Z,89.99
2018-01-28T22:09:36.683Z,89.85
2018-01-28T22:12:05.039Z,89.94
2018-01-28T22:14:33.409Z,90.11
2018-01-28T22:17:01.804Z,90.05
2018-01-28T22:19:30.145Z,89.99
2018-01-28T22:21:58.521Z,89.97
2018-01-28T22:24:26.821Z,89.85
2018-01-28T22:26:55.184Z,90.46
2018-01-28T22:29:24.615Z,90.24
2018-01-28T22:31:52.994Z,90.22
2018-01-28T22:34:21.313Z,90.05
2018-01-28T22:36:50.617Z,90.16
2018-01-28T22:39:18.942Z,90.22
2018-01-28T22:41:48.011Z,89.71
2018-01-28T22:44:16.303Z,90.17
2018-01-28T22:46:44.612Z,90.50
2018-01-28T22:49:12.884Z,90.38
2018-01-28T22:51:41.190Z,90.57
2018-01-28T22:54:10.682Z,90.20
2018-01-28T22:56:38.987Z,90.84
2018-01-28T22:59:07.251Z,90.96
2018-01-28T23:01:35.564Z,90.90
2018-01-28T23:04:03.849Z,90.62
2018-01-28T23:06:32.137Z,90.59
2018-01-28T23:09:00.408Z,90.42
2018-01-28T23:11:28.689Z,90.71
2018-01-28T23:13:56.990Z,90.88
2018-01-28T23:16:25.255Z,90.94
2018-01-28T23:18:53.569Z,90.77
2018-01-28T23:21:21.824Z,91.03
2018-01-28T23:23:50.161Z,90.90
2018-01-28T23:26:18.457Z,91.04
2018-01-28T23:28:46.724Z,91.35
2018-01-28T23:31:14.988Z,91.69
2018-01-28T23:33:43.260Z,91.60
2018-01-28T23:36:12.273Z,91.90
2018-01-28T23:38:40.531Z,92.08
2018-01-28T23:41:08.808Z,92.82
2018-01-28T23:43:37.077Z,92.77
2018-01-28T23:46:06.051Z,92.90
2018-01-28T23:48:34.311Z,92.96
2018-01-28T23:51:03.349Z,92.59
2018-01-28T23:53:31.644Z,92.56
2018-01-28T23:55:59.896Z,92.57
2018-01-28T23:58:29.667Z,92.44
